CheckWX is a tool to help pilots better visualize weather data.  It is not intended as a substitute for an official pre-flight weather briefing.

11:09:42 UTC

KFLO METAR
Florence Regional Airport
Florence, South Carolina, USA
Current

1 hour ago

KFLO 260953Z AUTO 00000KT 10SM CLR 04/02 A3002 RMK AO2 SLP163 T00440017
Observed
Jan-26 @ 09:53 UTC
Visibility
10 SM
Flight Rules
VFR
Cloud Levels
  • Clear skies
Temperature
C / 39°F
Dewpoint
C / 36°F
Humidity
87%
Altimeter
30.02" Hg
Pressure
1016.62 hPa
Previous

2 hours ago

KFLO 260853Z AUTO 32003KT 10SM CLR 06/02 A3001 RMK AO2 SLP162 T00560022 58003
Observed
Jan-26 @ 08:53 UTC
Wind
  • 320° at 3 KTS
Visibility
10 SM
Flight Rules
VFR
Cloud Levels
  • Clear skies
Temperature
C / 43°F
Dewpoint
C / 36°F
Humidity
76%
Altimeter
30.01" Hg
Pressure
1016.22 hPa
Previous

3 hours ago

KFLO 260753Z AUTO 32004KT 10SM CLR 06/02 A3002 RMK AO2 SLP163 T00610022
Observed
Jan-26 @ 07:53 UTC
Wind
  • 320° at 4 KTS
Visibility
10 SM
Flight Rules
VFR
Cloud Levels
  • Clear skies
Temperature
C / 43°F
Dewpoint
C / 36°F
Humidity
76%
Altimeter
30.02" Hg
Pressure
1016.62 hPa